Pagrindinis puslapis
METAR-TAF:

METAR-TAF

Oro uostai :

Sindal, Danija

platuma: 57-30N, ilguma: 010-13E, Aukštis: 28 m

Dabartinis oras

Ataskaita buvo paskelbta 15 valandos ir 57 minutes, ne 12:50 UTC
Vėjas 10 kt iš Vakarų
Temperatūra 12°C
Drėgmė 94%
Slėgis 999 hPa
Matomumas: 6000 m
Išsisklaidę debesys ne aukštis 900 ft
Su prošvaistėmis ne aukštis 3500 ft
lietus

METAR: EKSN 221250Z 26010KT 6000 -RA SCT009 BKN035 12/11 Q0999

Laikas: 06:47 (04:47 UTC)

Prognozė

Ataskaita buvo paskelbta 19 valandos ir 31 minutes, ne 09:16 UTC
Prognozė galioja nuo 22 metu 09 UTC su 22 metu 15 UTC
Vėjas 10 kt iš Pietvakarių
Matomumas 10 km arba daugiau
Su prošvaistėmis ne aukštis 2000 ft
Laikinai
nuo 22 metu 09 UTC su 22 metu 15 UTC
Vėjas 18 kt iš Pietvakarių su gūsio iki 30 kt
Su prošvaistėmis ne aukštis 1200 ft
Išsisklaidę debesys ne aukštis 1500 ft, Liūtiniai kamuoliniai debesys.
lietus

TAF: EKSN 220916Z 2209/2215 22010KT 9999 BKN020 TEMPO 2209/2215 23018G30KT SHRA BKN012 SCT015CB

Orai ataskaitas ir orų prognozės (METAR, TAF).

turimą stotys yra geltonos ir raudonos taškus žemėlapyje.

Perkelti pele per norėdami pamatyti stoties vardą.

Tada spustelėkite, norėdami matyti oro stebėjimo ir prognozės.

Norėdami pakeisti žemėlapį: spustelėkite ant žalios mygtukų su juodo kryžiaus žemyn,; žalią mygtuką su brūkšneliu, jei norite nutolinti; arba žalių rodyklių gretimoms žemėlapius.


METAR-TAF: